createdAt,value
2022-11-24T00:01:08.996Z,4.00
2022-11-24T00:03:36.547Z,3.80
2022-11-24T00:06:11.488Z,3.70
2022-11-24T00:08:40.184Z,4.00
2022-11-24T00:11:13.068Z,4.30
2022-11-24T00:13:41.266Z,4.30
2022-11-24T00:16:14.854Z,4.20
2022-11-24T00:18:44.033Z,4.20
2022-11-24T00:21:12.074Z,3.90
2022-11-24T00:23:39.510Z,3.80
2022-11-24T00:26:18.620Z,3.70
2022-11-24T00:28:48.438Z,3.60
2022-11-24T00:31:24.829Z,3.50
2022-11-24T00:33:54.676Z,3.50
2022-11-24T00:36:23.715Z,3.30
2022-11-24T00:38:59.751Z,3.20
2022-11-24T00:41:27.901Z,3.20
2022-11-24T00:43:55.832Z,3.30
2022-11-24T00:46:24.520Z,3.40
2022-11-24T00:48:53.720Z,3.50
2022-11-24T00:51:23.699Z,3.50
2022-11-24T00:53:51.139Z,3.30
2022-11-24T00:56:18.597Z,3.30
2022-11-24T00:58:45.931Z,3.30
2022-11-24T01:01:22.386Z,3.20
2022-11-24T01:03:50.691Z,3.10
2022-11-24T01:06:21.147Z,3.20
2022-11-24T01:08:49.123Z,3.50
2022-11-24T01:11:17.511Z,3.80
2022-11-24T01:13:47.469Z,3.60
2022-11-24T01:16:24.505Z,3.50
2022-11-24T01:18:52.768Z,3.50
2022-11-24T01:21:21.147Z,3.60
2022-11-24T01:23:48.497Z,3.30
2022-11-24T01:26:19.399Z,3.10
2022-11-24T01:28:47.893Z,3.10
2022-11-24T01:31:16.670Z,2.90
2022-11-24T01:33:44.290Z,3.00
2022-11-24T01:36:11.945Z,3.00
2022-11-24T01:38:39.471Z,2.90
2022-11-24T01:41:11.395Z,3.00
2022-11-24T01:43:38.997Z,3.10
2022-11-24T01:46:13.121Z,3.00
2022-11-24T01:48:47.070Z,3.00
2022-11-24T01:51:19.988Z,3.10
2022-11-24T01:53:54.593Z,3.00
2022-11-24T01:56:22.187Z,2.80
2022-11-24T01:58:52.165Z,2.80
2022-11-24T02:01:19.854Z,2.90
2022-11-24T02:03:49.057Z,3.10
2022-11-24T02:06:22.606Z,3.40
2022-11-24T02:09:04.441Z,3.10
2022-11-24T02:11:37.123Z,3.10
2022-11-24T02:14:06.623Z,3.20
2022-11-24T02:16:38.619Z,3.00
2022-11-24T02:19:20.973Z,3.10
2022-11-24T02:21:48.298Z,3.00
2022-11-24T02:24:36.611Z,2.90
2022-11-24T02:27:04.189Z,2.90
2022-11-24T02:29:31.636Z,3.00
2022-11-24T02:32:03.136Z,3.00
2022-11-24T02:34:30.505Z,2.80
2022-11-24T02:36:57.896Z,2.80
2022-11-24T02:39:25.294Z,2.80
2022-11-24T02:41:57.008Z,3.00
2022-11-24T02:44:28.259Z,3.40
2022-11-24T02:47:09.632Z,3.70
2022-11-24T02:49:37.167Z,4.00
2022-11-24T02:52:05.815Z,4.20
2022-11-24T02:54:33.561Z,3.90
2022-11-24T02:57:01.222Z,3.60
2022-11-24T02:59:28.562Z,3.30
2022-11-24T03:01:56.025Z,3.10
2022-11-24T03:04:23.738Z,3.00
2022-11-24T03:06:51.242Z,2.90
2022-11-24T03:09:18.581Z,2.90
2022-11-24T03:11:46.021Z,2.90
2022-11-24T03:14:13.407Z,3.10
2022-11-24T03:16:40.858Z,3.20
2022-11-24T03:19:08.213Z,3.00
2022-11-24T03:21:36.785Z,2.90
2022-11-24T03:24:04.468Z,2.80
2022-11-24T03:26:34.407Z,2.80
2022-11-24T03:29:02.558Z,3.10
2022-11-24T03:31:31.237Z,3.20
2022-11-24T03:33:58.691Z,3.30
2022-11-24T03:36:26.613Z,3.20
2022-11-24T03:38:54.225Z,3.60
2022-11-24T03:41:21.787Z,3.60
2022-11-24T03:43:49.148Z,3.30
2022-11-24T03:46:16.553Z,2.90
2022-11-24T03:48:43.999Z,2.90
2022-11-24T03:51:11.717Z,2.80
2022-11-24T03:53:39.238Z,2.70
2022-11-24T03:56:07.017Z,2.70
2022-11-24T03:58:34.481Z,2.40
2022-11-24T04:01:02.085Z,2.40
2022-11-24T04:03:29.599Z,2.70
2022-11-24T04:05:57.082Z,2.90
2022-11-24T04:08:24.571Z,2.60
2022-11-24T04:10:53.517Z,2.60
2022-11-24T04:13:23.565Z,2.50
2022-11-24T04:15:51.470Z,2.50
2022-11-24T04:18:19.334Z,2.80
2022-11-24T04:20:50.482Z,2.80
2022-11-24T04:23:18.418Z,2.50
2022-11-24T04:25:45.816Z,2.40
2022-11-24T04:28:13.336Z,2.40
2022-11-24T04:30:44.635Z,2.70
2022-11-24T04:33:13.247Z,2.70
2022-11-24T04:35:40.876Z,2.90
2022-11-24T04:38:08.629Z,2.80
2022-11-24T04:40:36.013Z,2.80
2022-11-24T04:43:03.372Z,2.80
2022-11-24T04:45:30.740Z,3.00
2022-11-24T04:47:58.162Z,3.00
2022-11-24T04:50:25.592Z,3.30
2022-11-24T04:52:53.120Z,3.70
2022-11-24T04:55:20.545Z,3.90
2022-11-24T04:57:48.050Z,4.00
2022-11-24T05:00:15.749Z,3.70
2022-11-24T05:02:43.113Z,3.80
2022-11-24T05:05:10.755Z,3.30
2022-11-24T05:07:38.144Z,3.20
2022-11-24T05:10:44.502Z,2.90
2022-11-24T05:13:13.324Z,2.90
2022-11-24T05:15:42.021Z,3.30
2022-11-24T05:18:12.488Z,3.20
2022-11-24T05:20:39.902Z,3.00
2022-11-24T05:23:08.471Z,3.10
2022-11-24T05:25:36.388Z,2.70
2022-11-24T05:28:06.164Z,2.60
2022-11-24T05:30:33.559Z,2.60
2022-11-24T05:33:05.753Z,2.60
2022-11-24T05:35:33.904Z,2.60
2022-11-24T05:38:01.322Z,2.30
2022-11-24T05:40:28.829Z,2.10
2022-11-24T05:42:56.194Z,2.20
2022-11-24T05:45:23.768Z,2.30
2022-11-24T05:47:51.676Z,2.30
2022-11-24T05:50:21.060Z,2.20
2022-11-24T05:52:49.435Z,2.30
2022-11-24T05:55:16.890Z,2.40
2022-11-24T05:57:44.287Z,2.30
2022-11-24T06:00:12.673Z,2.40
2022-11-24T06:02:40.652Z,2.40
2022-11-24T06:05:08.563Z,2.50
2022-11-24T06:07:36.143Z,2.60
2022-11-24T06:10:04.293Z,2.70
2022-11-24T06:12:31.930Z,3.00
2022-11-24T06:14:59.386Z,3.20
2022-11-24T06:17:26.798Z,3.40
2022-11-24T06:19:54.421Z,3.50
2022-11-24T06:22:22.047Z,3.50
2022-11-24T06:24:50.755Z,3.70
2022-11-24T06:27:18.982Z,3.70
2022-11-24T06:29:46.384Z,3.70
2022-11-24T06:32:13.927Z,3.80
2022-11-24T06:34:41.343Z,3.90
2022-11-24T06:37:09.174Z,4.00
2022-11-24T06:39:37.344Z,3.60
2022-11-24T06:42:04.904Z,3.30
2022-11-24T06:44:32.706Z,3.10
2022-11-24T06:47:00.429Z,3.20
2022-11-24T06:49:27.838Z,3.60
2022-11-24T06:51:55.888Z,3.70
2022-11-24T06:54:23.341Z,3.90
2022-11-24T06:56:55.514Z,4.20
2022-11-24T06:59:23.005Z,4.00
2022-11-24T07:01:50.444Z,3.60
2022-11-24T07:04:18.172Z,3.30
2022-11-24T07:06:46.067Z,3.20
2022-11-24T07:09:14.795Z,3.20
2022-11-24T07:11:42.282Z,3.20
2022-11-24T07:14:10.559Z,3.20
2022-11-24T07:16:39.880Z,3.50
2022-11-24T07:19:07.407Z,3.80
2022-11-24T07:21:34.802Z,4.30
2022-11-24T07:24:02.211Z,4.30
2022-11-24T07:26:29.630Z,4.00
2022-11-24T07:28:57.008Z,4.10
2022-11-24T07:31:25.135Z,4.10
2022-11-24T07:33:54.196Z,4.20
2022-11-24T07:36:22.644Z,4.20
2022-11-24T07:38:50.452Z,4.20
2022-11-24T07:41:19.685Z,4.10
2022-11-24T07:43:48.253Z,4.10
2022-11-24T07:46:17.702Z,4.20
2022-11-24T07:48:45.989Z,4.20
2022-11-24T07:51:13.436Z,4.10
2022-11-24T07:53:40.874Z,4.20
2022-11-24T07:56:10.087Z,4.40
2022-11-24T07:58:38.498Z,4.60
2022-11-24T08:01:17.158Z,4.70
2022-11-24T08:03:45.472Z,4.60
2022-11-24T08:06:38.145Z,4.80
2022-11-24T08:09:01.350Z,5.00
2022-11-24T08:11:31.421Z,5.10
2022-11-24T08:13:59.152Z,5.10
2022-11-24T08:16:26.561Z,5.20
2022-11-24T08:18:55.721Z,5.30
2022-11-24T08:21:23.814Z,5.30
2022-11-24T08:23:58.255Z,5.30
2022-11-24T08:26:26.373Z,5.30
2022-11-24T08:28:56.446Z,5.30
2022-11-24T08:31:27.198Z,5.30
2022-11-24T08:33:56.264Z,5.50
2022-11-24T08:36:23.697Z,5.70
2022-11-24T08:38:56.091Z,5.90
2022-11-24T08:41:24.841Z,6.00
2022-11-24T08:43:52.574Z,6.00
2022-11-24T08:46:20.600Z,6.30
2022-11-24T08:48:55.319Z,6.40
2022-11-24T08:51:26.249Z,6.60
2022-11-24T08:53:58.740Z,6.60
2022-11-24T08:56:27.779Z,6.70
2022-11-24T08:58:56.514Z,6.80
2022-11-24T09:01:24.787Z,7.00
2022-11-24T09:03:52.574Z,7.10
2022-11-24T09:06:25.303Z,7.20
2022-11-24T09:08:54.568Z,7.40
2022-11-24T09:11:22.959Z,7.50
2022-11-24T09:13:50.743Z,7.50
2022-11-24T09:16:23.649Z,7.60
2022-11-24T09:19:02.354Z,7.60
2022-11-24T09:21:31.240Z,7.70
2022-11-24T09:23:58.653Z,7.80
2022-11-24T09:26:32.219Z,7.90
2022-11-24T09:29:02.285Z,8.00
2022-11-24T09:31:34.264Z,8.20
2022-11-24T09:34:03.351Z,8.30
2022-11-24T09:36:31.989Z,8.40
2022-11-24T09:38:59.842Z,8.50
2022-11-24T09:41:54.094Z,8.60
2022-11-24T09:44:42.845Z,8.70
2022-11-24T09:47:16.688Z,8.70
2022-11-24T09:50:02.174Z,8.80
2022-11-24T09:53:03.673Z,8.90
2022-11-24T09:55:45.135Z,9.00
2022-11-24T09:58:27.561Z,9.20
2022-11-24T10:00:57.204Z,9.30
2022-11-24T10:03:41.865Z,9.30
2022-11-24T10:06:26.148Z,9.40
2022-11-24T10:09:35.844Z,9.50
2022-11-24T10:12:37.373Z,9.70
2022-11-24T10:15:31.467Z,9.80
2022-11-24T10:18:04.806Z,9.80
2022-11-24T10:20:34.923Z,9.90
2022-11-24T10:23:14.067Z,10.00
2022-11-24T10:26:17.945Z,9.80
2022-11-24T10:28:56.427Z,9.80
2022-11-24T10:31:40.996Z,9.90
2022-11-24T10:34:18.066Z,9.90
2022-11-24T10:37:14.090Z,10.00
2022-11-24T10:39:50.572Z,10.00
2022-11-24T10:42:29.232Z,10.00
2022-11-24T10:45:01.772Z,10.00
2022-11-24T10:47:30.739Z,10.00
2022-11-24T10:50:01.050Z,10.20
2022-11-24T10:52:32.736Z,10.20
2022-11-24T10:55:05.826Z,10.30
2022-11-24T10:57:36.291Z,10.30
2022-11-24T11:00:18.967Z,10.40
2022-11-24T11:02:48.693Z,10.40
2022-11-24T11:05:44.350Z,10.50
2022-11-24T11:08:14.787Z,10.50
2022-11-24T11:10:44.261Z,10.60
2022-11-24T11:13:31.404Z,10.70
2022-11-24T11:15:59.655Z,10.70
2022-11-24T11:18:33.997Z,10.80
2022-11-24T11:21:03.395Z,10.90
2022-11-24T11:23:34.505Z,11.10
2022-11-24T11:26:33.262Z,11.00
2022-11-24T11:34:54.591Z,11.10
2022-11-24T11:37:26.067Z,11.00
2022-11-24T11:39:57.667Z,11.00
2022-11-24T11:45:35.987Z,11.20
2022-11-24T11:48:03.452Z,11.20
2022-11-24T11:51:22.334Z,11.20
2022-11-24T11:54:04.799Z,11.20
2022-11-24T11:56:46.510Z,11.20
2022-11-24T11:59:31.811Z,11.30
2022-11-24T12:02:27.046Z,11.30
2022-11-24T12:04:54.697Z,11.30
2022-11-24T12:07:47.133Z,11.50
2022-11-24T12:10:21.432Z,11.50
2022-11-24T12:13:07.663Z,11.50
2022-11-24T12:15:51.469Z,11.40
2022-11-24T12:18:59.718Z,11.40
2022-11-24T12:21:44.688Z,11.50
2022-11-24T12:24:44.338Z,11.50
2022-11-24T12:27:38.490Z,11.50
2022-11-24T12:30:18.133Z,11.60
2022-11-24T12:33:06.072Z,11.60
2022-11-24T12:35:49.432Z,11.50
2022-11-24T12:38:34.170Z,11.60
2022-11-24T12:44:10.271Z,11.70
2022-11-24T12:46:59.310Z,11.70
2022-11-24T12:49:43.769Z,11.60
2022-11-24T12:52:14.193Z,11.70
2022-11-24T12:54:41.790Z,11.70
2022-11-24T12:57:36.501Z,11.60
2022-11-24T13:00:07.993Z,11.70
2022-11-24T13:02:50.165Z,11.70
2022-11-24T13:05:33.700Z,11.70
2022-11-24T13:08:04.112Z,11.70
2022-11-24T13:13:19.685Z,11.60
2022-11-24T13:16:07.008Z,11.70
2022-11-24T13:19:07.545Z,11.70
2022-11-24T13:21:40.789Z,11.70
2022-11-24T13:24:18.045Z,11.60
2022-11-24T13:26:49.158Z,11.70
2022-11-24T13:29:33.333Z,11.60
2022-11-24T13:32:06.204Z,11.60
2022-11-24T13:34:39.561Z,11.60
2022-11-24T13:37:35.031Z,11.60
2022-11-24T13:40:23.793Z,11.70
2022-11-24T13:42:57.735Z,11.70
2022-11-24T13:45:44.981Z,11.70
2022-11-24T13:48:22.671Z,11.70
2022-11-24T13:50:50.434Z,11.70
2022-11-24T13:53:36.142Z,11.70
2022-11-24T13:56:06.241Z,11.70
2022-11-24T13:58:40.581Z,11.70
2022-11-24T14:01:19.986Z,11.80
2022-11-24T14:04:28.081Z,11.80
2022-11-24T14:06:57.719Z,11.80
2022-11-24T14:09:51.172Z,11.90
2022-11-24T14:12:24.328Z,11.90
2022-11-24T14:14:55.683Z,12.00
2022-11-24T14:17:27.758Z,11.90
2022-11-24T14:19:56.865Z,11.80
2022-11-24T14:22:43.925Z,11.70
2022-11-24T14:25:29.880Z,11.70
2022-11-24T14:27:59.278Z,11.70
2022-11-24T14:30:27.120Z,11.70
2022-11-24T14:32:58.362Z,11.60
2022-11-24T14:35:31.848Z,11.60
2022-11-24T14:38:04.366Z,11.50
2022-11-24T14:40:48.666Z,11.50
2022-11-24T14:43:31.920Z,11.50
2022-11-24T14:46:08.020Z,11.40
2022-11-24T14:48:45.390Z,11.30
2022-11-24T14:51:26.166Z,11.30
2022-11-24T14:53:57.864Z,11.30
2022-11-24T14:56:27.311Z,11.20
2022-11-24T14:58:56.108Z,11.20
2022-11-24T15:01:32.820Z,11.30
2022-11-24T15:04:22.043Z,11.20
2022-11-24T15:07:26.119Z,11.00
2022-11-24T15:09:58.939Z,10.80
2022-11-24T15:12:40.426Z,10.60
2022-11-24T15:15:13.777Z,10.50
2022-11-24T15:17:49.511Z,10.30
2022-11-24T15:20:41.628Z,10.00
2022-11-24T15:23:36.326Z,9.90
2022-11-24T15:26:03.876Z,9.60
2022-11-24T15:28:31.577Z,9.60
2022-11-24T15:31:09.485Z,9.50
2022-11-24T15:33:37.061Z,9.40
2022-11-24T15:36:05.108Z,9.30
2022-11-24T15:38:40.579Z,9.30
2022-11-24T15:41:24.667Z,9.40
2022-11-24T15:43:58.815Z,9.40
2022-11-24T15:46:37.611Z,9.60
2022-11-24T15:49:06.435Z,9.60
2022-11-24T15:51:35.511Z,9.30
2022-11-24T15:54:02.946Z,9.40
2022-11-24T15:56:32.295Z,9.60
2022-11-24T15:59:00.483Z,9.60
2022-11-24T16:01:33.055Z,9.30
2022-11-24T16:04:01.717Z,8.90
2022-11-24T16:06:29.186Z,8.80
2022-11-24T16:08:58.109Z,8.50
2022-11-24T16:11:26.003Z,8.40
2022-11-24T16:13:54.391Z,8.20
2022-11-24T16:16:24.713Z,8.10
2022-11-24T16:18:52.563Z,7.70
2022-11-24T16:21:19.992Z,7.70
2022-11-24T16:23:48.667Z,7.60
2022-11-24T16:26:16.294Z,7.50
2022-11-24T16:28:45.350Z,8.10
2022-11-24T16:31:15.887Z,8.50
2022-11-24T16:33:46.372Z,8.70
2022-11-24T16:36:14.306Z,8.90
2022-11-24T16:38:41.838Z,9.00
2022-11-24T16:41:10.242Z,8.40
2022-11-24T16:43:38.284Z,7.90
2022-11-24T16:46:08.742Z,7.60
2022-11-24T16:48:36.702Z,7.20
2022-11-24T16:51:10.167Z,7.20
2022-11-24T16:53:38.081Z,7.90
2022-11-24T16:56:05.997Z,8.30
2022-11-24T16:58:34.219Z,8.60
2022-11-24T17:01:10.593Z,8.70
2022-11-24T17:03:39.170Z,8.80
2022-11-24T17:06:09.177Z,8.30
2022-11-24T17:08:38.171Z,8.00
2022-11-24T17:11:10.458Z,7.70
2022-11-24T17:13:38.145Z,7.20
2022-11-24T17:16:07.614Z,6.90
2022-11-24T17:18:35.264Z,6.70
2022-11-24T17:21:07.843Z,6.40
2022-11-24T17:23:38.090Z,6.20
2022-11-24T17:26:08.411Z,6.10
2022-11-24T17:28:36.348Z,6.30
2022-11-24T17:31:23.940Z,6.50
2022-11-24T17:33:53.690Z,6.50
2022-11-24T17:36:21.450Z,6.80
2022-11-24T17:38:51.845Z,7.30
2022-11-24T17:41:20.854Z,7.60
2022-11-24T17:43:53.300Z,7.90
2022-11-24T17:46:20.765Z,8.00
2022-11-24T17:48:48.362Z,7.90
2022-11-24T17:51:21.178Z,7.80
2022-11-24T17:53:50.494Z,8.00
2022-11-24T17:56:23.699Z,8.20
2022-11-24T17:58:56.153Z,8.40
2022-11-24T18:01:24.313Z,8.50
2022-11-24T18:03:53.732Z,8.50
2022-11-24T18:06:25.119Z,8.40
2022-11-24T18:08:54.017Z,8.40
2022-11-24T18:11:32.368Z,8.20
2022-11-24T18:14:02.931Z,7.80
2022-11-24T18:16:32.478Z,7.10
2022-11-24T18:19:09.983Z,6.70
2022-11-24T18:21:43.752Z,6.50
2022-11-24T18:24:12.437Z,6.30
2022-11-24T18:26:41.810Z,6.50
2022-11-24T18:29:11.095Z,7.10
2022-11-24T18:31:38.639Z,7.50
2022-11-24T18:34:06.865Z,7.40
2022-11-24T18:36:34.993Z,7.10
2022-11-24T18:39:07.429Z,6.60
2022-11-24T18:41:35.502Z,6.20
2022-11-24T18:44:03.415Z,6.00
2022-11-24T18:46:30.975Z,6.30
2022-11-24T18:48:59.304Z,6.30
2022-11-24T18:51:27.214Z,6.10
2022-11-24T18:53:54.735Z,6.30
2022-11-24T18:56:22.145Z,6.20
2022-11-24T18:58:53.508Z,6.00
2022-11-24T19:01:23.509Z,5.70
2022-11-24T19:03:58.995Z,5.60
2022-11-24T19:06:32.378Z,5.50
2022-11-24T19:09:06.761Z,5.40
2022-11-24T19:11:37.141Z,5.30
2022-11-24T19:14:06.858Z,5.10
2022-11-24T19:16:34.906Z,5.10
2022-11-24T19:19:03.040Z,4.90
2022-11-24T19:21:32.829Z,4.90
2022-11-24T19:24:04.824Z,4.80
2022-11-24T19:26:35.227Z,4.80
2022-11-24T19:29:03.666Z,5.10
2022-11-24T19:31:31.523Z,5.30
2022-11-24T19:33:59.777Z,5.10
2022-11-24T19:36:27.368Z,4.90
2022-11-24T19:38:56.509Z,5.10
2022-11-24T19:41:29.302Z,5.60
2022-11-24T19:43:58.430Z,6.10
2022-11-24T19:46:28.013Z,6.30
2022-11-24T19:48:57.194Z,6.60
2022-11-24T19:51:28.235Z,6.70
2022-11-24T19:53:55.658Z,6.70
2022-11-24T19:56:25.430Z,6.80
2022-11-24T19:58:54.532Z,6.90
2022-11-24T20:01:46.671Z,7.10
2022-11-24T20:04:15.584Z,7.20
2022-11-24T20:06:47.191Z,7.00
2022-11-24T20:09:16.688Z,6.30
2022-11-24T20:11:44.584Z,5.80
2022-11-24T20:14:14.370Z,5.50
2022-11-24T20:16:42.056Z,5.30
2022-11-24T20:19:15.182Z,5.30
2022-11-24T20:21:46.291Z,5.50
2022-11-24T20:24:16.579Z,6.00
2022-11-24T20:26:47.944Z,5.60
2022-11-24T20:29:16.299Z,5.40
2022-11-24T20:31:46.507Z,5.20
2022-11-24T20:34:14.761Z,5.10
2022-11-24T20:36:44.637Z,5.00
2022-11-24T20:39:18.631Z,5.10
2022-11-24T20:41:46.071Z,5.60
2022-11-24T20:44:16.236Z,6.00
2022-11-24T20:46:45.111Z,6.40
2022-11-24T20:49:19.009Z,6.60
2022-11-24T20:51:54.273Z,6.70
2022-11-24T20:54:22.049Z,6.70
2022-11-24T20:56:49.836Z,6.80
2022-11-24T20:59:21.419Z,6.90
2022-11-24T21:01:51.105Z,6.90
2022-11-24T21:04:22.578Z,6.50
2022-11-24T21:06:50.348Z,6.30
2022-11-24T21:09:18.539Z,6.50
2022-11-24T21:11:46.368Z,6.70
2022-11-24T21:14:14.032Z,6.30
2022-11-24T21:16:42.380Z,5.80
2022-11-24T21:19:14.886Z,5.50
2022-11-24T21:21:43.144Z,5.40
2022-11-24T21:24:13.398Z,5.40
2022-11-24T21:26:42.007Z,5.00
2022-11-24T21:29:12.159Z,5.00
2022-11-24T21:31:39.618Z,4.90
2022-11-24T21:34:07.816Z,4.90
2022-11-24T21:36:36.036Z,4.80
2022-11-24T21:39:04.447Z,4.60
2022-11-24T21:41:33.470Z,4.70
2022-11-24T21:44:01.517Z,4.80
2022-11-24T21:46:39.032Z,4.70
2022-11-24T21:49:09.845Z,4.60
2022-11-24T21:51:37.221Z,4.70
2022-11-24T21:54:05.612Z,4.60
2022-11-24T21:56:33.049Z,4.60
2022-11-24T21:59:00.478Z,4.90
2022-11-24T22:01:28.954Z,5.00
2022-11-24T22:03:56.752Z,5.40
2022-11-24T22:06:24.465Z,5.80
2022-11-24T22:08:51.893Z,6.10
2022-11-24T22:11:22.781Z,6.00
2022-11-24T22:13:50.965Z,6.10
2022-11-24T22:16:23.820Z,6.30
2022-11-24T22:18:52.138Z,6.40
2022-11-24T22:21:25.576Z,6.50
2022-11-24T22:23:53.214Z,6.60
2022-11-24T22:26:22.479Z,6.60
2022-11-24T22:28:50.854Z,6.70
2022-11-24T22:31:21.221Z,6.70
2022-11-24T22:33:49.707Z,6.70
2022-11-24T22:36:20.692Z,6.80
2022-11-24T22:38:52.579Z,6.80
2022-11-24T22:41:20.291Z,6.80
2022-11-24T22:43:47.793Z,6.80
2022-11-24T22:46:20.968Z,6.80
2022-11-24T22:48:50.092Z,6.40
2022-11-24T22:51:26.046Z,6.30
2022-11-24T22:53:56.071Z,6.50
2022-11-24T22:56:24.634Z,6.60
2022-11-24T22:58:52.152Z,6.50
2022-11-24T23:01:21.846Z,6.60
2022-11-24T23:03:49.797Z,6.50
2022-11-24T23:06:20.446Z,6.60
2022-11-24T23:08:49.069Z,6.60
2022-11-24T23:11:27.394Z,6.20
2022-11-24T23:14:02.407Z,5.90
2022-11-24T23:16:30.140Z,5.70
2022-11-24T23:18:58.063Z,5.70
2022-11-24T23:21:28.257Z,5.70
2022-11-24T23:23:56.094Z,5.90
2022-11-24T23:26:51.193Z,5.80
2022-11-24T23:29:19.569Z,5.40
2022-11-24T23:31:46.965Z,5.20
2022-11-24T23:34:14.358Z,5.00
2022-11-24T23:36:41.779Z,5.00
2022-11-24T23:39:12.376Z,5.30
2022-11-24T23:41:39.918Z,5.60
2022-11-24T23:44:07.674Z,5.80
2022-11-24T23:46:35.581Z,6.00
2022-11-24T23:49:03.183Z,5.70
2022-11-24T23:51:32.718Z,5.30
2022-11-24T23:54:00.709Z,5.30
2022-11-24T23:56:32.914Z,5.20
2022-11-24T23:59:02.359Z,5.00
